createdAt,value
2022-11-24T00:01:35.832Z,97470.94
2022-11-24T00:03:43.222Z,97481.28
2022-11-24T00:05:48.731Z,97483.81
2022-11-24T00:07:53.661Z,97487.03
2022-11-24T00:09:58.438Z,97492.19
2022-11-24T00:12:03.927Z,97491.25
2022-11-24T00:14:09.464Z,97492.47
2022-11-24T00:16:15.898Z,97499.53
2022-11-24T00:18:20.807Z,97503.09
2022-11-24T00:20:28.211Z,97501.47
2022-11-24T00:22:33.753Z,97523.47
2022-11-24T00:24:38.604Z,97521.44
2022-11-24T00:26:43.412Z,97525.66
2022-11-24T00:28:49.976Z,97528.47
2022-11-24T00:30:54.818Z,97535.88
2022-11-24T00:32:59.678Z,97540.22
2022-11-24T00:35:04.434Z,97537.50
2022-11-24T00:37:11.781Z,97542.56
2022-11-24T00:39:20.076Z,97554.53
2022-11-24T00:41:25.773Z,97553.78
2022-11-24T00:43:30.730Z,97558.88
2022-11-24T00:45:35.588Z,97561.56
2022-11-24T00:47:40.407Z,97566.69
2022-11-24T00:49:47.951Z,97566.69
2022-11-24T00:51:52.729Z,97570.94
2022-11-24T00:54:00.174Z,97571.75
2022-11-24T00:56:05.280Z,97577.09
2022-11-24T00:58:10.109Z,97582.34
2022-11-24T01:00:15.946Z,97586.69
2022-11-24T01:02:20.844Z,97590.09
2022-11-24T01:04:25.757Z,97584.13
2022-11-24T01:06:32.809Z,97591.66
2022-11-24T01:08:39.146Z,97588.34
2022-11-24T01:10:46.794Z,97593.28
2022-11-24T01:12:51.639Z,97596.56
2022-11-24T01:14:56.403Z,97595.59
2022-11-24T01:17:01.245Z,97591.97
2022-11-24T01:19:06.538Z,97598.97
2022-11-24T01:21:11.360Z,97598.97
2022-11-24T01:23:18.024Z,97599.72
2022-11-24T01:25:22.792Z,97597.88
2022-11-24T01:27:30.161Z,97601.91
2022-11-24T01:29:34.999Z,97603.81
2022-11-24T01:31:39.798Z,97608.00
2022-11-24T01:33:44.578Z,97609.59
2022-11-24T01:35:49.409Z,97619.91
2022-11-24T01:37:56.896Z,97617.19
2022-11-24T01:40:02.044Z,97623.34
2022-11-24T01:42:07.040Z,97623.03
2022-11-24T01:44:28.704Z,97618.56
2022-11-24T01:46:40.511Z,97626.09
2022-11-24T01:48:48.682Z,97628.69
2022-11-24T01:50:58.052Z,97628.56
2022-11-24T01:53:02.896Z,97623.44
2022-11-24T01:55:12.468Z,97631.28
2022-11-24T01:57:23.008Z,97635.44
2022-11-24T01:59:31.177Z,97637.94
2022-11-24T02:01:36.055Z,97642.28
2022-11-24T02:03:46.803Z,97641.38
2022-11-24T02:05:59.223Z,97647.09
2022-11-24T02:08:05.866Z,97634.69
2022-11-24T02:10:16.147Z,97641.22
2022-11-24T02:12:20.986Z,97641.94
2022-11-24T02:14:27.670Z,97641.75
2022-11-24T02:16:37.129Z,97645.75
2022-11-24T02:18:43.075Z,97643.88
2022-11-24T02:20:47.848Z,97643.03
2022-11-24T02:22:57.799Z,97640.41
2022-11-24T02:25:09.664Z,97644.88
2022-11-24T02:27:17.047Z,97645.75
2022-11-24T02:29:22.554Z,97648.56
2022-11-24T02:31:27.360Z,97648.69
2022-11-24T02:33:32.625Z,97649.41
2022-11-24T02:35:37.467Z,97650.75
2022-11-24T02:37:42.556Z,97650.69
2022-11-24T02:39:47.070Z,97654.44
2022-11-24T02:41:56.516Z,97646.78
2022-11-24T02:44:05.075Z,97652.03
2022-11-24T02:46:10.981Z,97649.38
2022-11-24T02:48:17.913Z,97655.59
2022-11-24T02:50:22.656Z,97653.97
2022-11-24T02:52:27.504Z,97656.53
2022-11-24T02:54:32.792Z,97655.66
2022-11-24T02:56:37.810Z,97655.06
2022-11-24T02:58:42.823Z,97661.94
2022-11-24T03:00:50.388Z,97665.25
2022-11-24T03:02:55.180Z,97667.78
2022-11-24T03:05:00.028Z,97670.16
2022-11-24T03:07:04.853Z,97670.28
2022-11-24T03:09:09.848Z,97675.34
2022-11-24T03:11:14.605Z,97680.53
2022-11-24T03:13:19.451Z,97680.41
2022-11-24T03:15:24.670Z,97689.09
2022-11-24T03:17:31.834Z,97692.81
2022-11-24T03:19:36.758Z,97684.16
2022-11-24T03:21:41.549Z,97694.28
2022-11-24T03:23:46.317Z,97696.91
2022-11-24T03:25:51.090Z,97697.41
2022-11-24T03:27:55.851Z,97698.91
2022-11-24T03:30:00.626Z,97702.34
2022-11-24T03:32:05.618Z,97702.47
2022-11-24T03:34:13.550Z,97703.47
2022-11-24T03:36:18.301Z,97703.34
2022-11-24T03:38:23.108Z,97700.59
2022-11-24T03:40:27.822Z,97705.38
2022-11-24T03:42:32.655Z,97710.53
2022-11-24T03:44:37.466Z,97705.13
2022-11-24T03:46:45.338Z,97709.34
2022-11-24T03:48:50.304Z,97708.56
2022-11-24T03:51:03.179Z,97713.53
2022-11-24T03:53:08.031Z,97705.94
2022-11-24T03:55:12.974Z,97706.84
2022-11-24T03:57:17.707Z,97709.47
2022-11-24T03:59:22.525Z,97706.84
2022-11-24T04:01:27.321Z,97707.72
2022-11-24T04:03:32.433Z,97715.63
2022-11-24T04:05:38.568Z,97719.19
2022-11-24T04:07:46.062Z,97723.38
2022-11-24T04:09:50.838Z,97732.03
2022-11-24T04:12:10.682Z,97732.09
2022-11-24T04:14:15.624Z,97738.31
2022-11-24T04:16:20.449Z,97736.38
2022-11-24T04:18:25.513Z,97743.19
2022-11-24T04:20:30.418Z,97747.22
2022-11-24T04:22:35.801Z,97746.38
2022-11-24T04:24:43.159Z,97745.53
2022-11-24T04:26:48.021Z,97750.66
2022-11-24T04:28:52.865Z,97749.63
2022-11-24T04:30:57.667Z,97753.72
2022-11-24T04:33:02.678Z,97751.69
2022-11-24T04:35:08.187Z,97753.06
2022-11-24T04:37:13.274Z,97759.72
2022-11-24T04:39:19.510Z,97761.22
2022-11-24T04:41:33.535Z,97756.78
2022-11-24T04:43:40.745Z,97761.09
2022-11-24T04:45:46.088Z,97763.47
2022-11-24T04:47:50.893Z,97766.34
2022-11-24T04:49:55.850Z,97772.50
2022-11-24T04:52:01.157Z,97774.34
2022-11-24T04:54:05.670Z,97779.66
2022-11-24T04:56:11.116Z,97779.03
2022-11-24T04:58:18.612Z,97782.81
2022-11-24T05:00:23.735Z,97783.91
2022-11-24T05:02:28.516Z,97793.78
2022-11-24T05:04:33.633Z,97794.88
2022-11-24T05:06:38.738Z,97799.84
2022-11-24T05:08:43.554Z,97798.19
2022-11-24T05:10:45.838Z,97798.06
2022-11-24T05:12:57.237Z,97795.59
2022-11-24T05:15:06.655Z,97797.38
2022-11-24T05:17:11.546Z,97799.44
2022-11-24T05:19:16.821Z,97803.84
2022-11-24T05:21:21.332Z,97807.41
2022-11-24T05:23:26.143Z,97810.25
2022-11-24T05:25:30.871Z,97812.88
2022-11-24T05:27:35.749Z,97809.50
2022-11-24T05:29:40.503Z,97812.75
2022-11-24T05:31:47.952Z,97815.34
2022-11-24T05:33:52.876Z,97812.59
2022-11-24T05:35:58.083Z,97817.81
2022-11-24T05:38:02.834Z,97814.53
2022-11-24T05:40:09.253Z,97806.69
2022-11-24T05:42:26.500Z,97822.25
2022-11-24T05:44:31.425Z,97818.06
2022-11-24T05:46:36.421Z,97824.88
2022-11-24T05:48:43.811Z,97818.78
2022-11-24T05:50:48.564Z,97820.63
2022-11-24T05:52:53.803Z,97823.25
2022-11-24T05:54:58.639Z,97830.25
2022-11-24T05:57:03.454Z,97832.09
2022-11-24T05:59:10.149Z,97825.38
2022-11-24T06:01:15.362Z,97829.63
2022-11-24T06:03:20.138Z,97828.81
2022-11-24T06:05:27.658Z,97829.63
2022-11-24T06:07:32.460Z,97836.69
2022-11-24T06:09:39.134Z,97838.50
2022-11-24T06:11:43.926Z,97840.31
2022-11-24T06:13:50.229Z,97848.13
2022-11-24T06:15:55.287Z,97839.56
2022-11-24T06:18:00.245Z,97844.81
2022-11-24T06:20:05.082Z,97852.63
2022-11-24T06:22:12.734Z,97849.22
2022-11-24T06:24:17.569Z,97847.56
2022-11-24T06:26:22.395Z,97849.41
2022-11-24T06:28:27.194Z,97856.19
2022-11-24T06:30:32.030Z,97856.94
2022-11-24T06:32:36.788Z,97855.06
2022-11-24T06:34:41.620Z,97858.38
2022-11-24T06:36:47.083Z,97854.75
2022-11-24T06:38:54.455Z,97859.84
2022-11-24T06:41:03.696Z,97858.75
2022-11-24T06:43:08.591Z,97863.72
2022-11-24T06:45:13.882Z,97861.91
2022-11-24T06:47:18.707Z,97853.03
2022-11-24T06:49:23.606Z,97856.31
2022-11-24T06:51:29.197Z,97852.75
2022-11-24T06:53:37.827Z,97857.69
2022-11-24T06:55:46.137Z,97857.53
2022-11-24T06:57:50.983Z,97851.25
2022-11-24T06:59:55.850Z,97858.03
2022-11-24T07:02:00.594Z,97851.81
2022-11-24T07:04:05.386Z,97848.25
2022-11-24T07:06:10.171Z,97852.41
2022-11-24T07:08:17.962Z,97866.16
2022-11-24T07:10:22.992Z,97864.31
2022-11-24T07:12:30.531Z,97867.63
2022-11-24T07:14:35.783Z,97867.50
2022-11-24T07:16:41.849Z,97860.66
2022-11-24T07:18:47.251Z,97868.56
2022-11-24T07:20:52.092Z,97873.81
2022-11-24T07:22:59.074Z,97877.44
2022-11-24T07:25:07.336Z,97873.47
2022-11-24T07:27:13.185Z,97877.88
2022-11-24T07:29:20.648Z,97882.28
2022-11-24T07:31:27.678Z,97884.97
2022-11-24T07:33:32.493Z,97890.25
2022-11-24T07:35:37.230Z,97883.38
2022-11-24T07:37:42.114Z,97884.34
2022-11-24T07:39:46.917Z,97895.69
2022-11-24T07:41:51.675Z,97889.91
2022-11-24T07:43:56.440Z,97895.03
2022-11-24T07:46:06.538Z,97893.16
2022-11-24T07:48:12.017Z,97899.19
2022-11-24T07:50:20.769Z,97899.88
2022-11-24T07:52:26.889Z,97901.50
2022-11-24T07:54:32.358Z,97900.53
2022-11-24T07:56:37.380Z,97900.25
2022-11-24T07:58:45.967Z,97913.81
2022-11-24T08:00:53.228Z,97910.88
2022-11-24T08:03:00.712Z,97902.97
2022-11-24T08:05:05.539Z,97901.09
2022-11-24T08:07:10.437Z,97900.88
2022-11-24T08:09:15.335Z,97896.44
2022-11-24T08:11:21.057Z,97894.47
2022-11-24T08:13:25.894Z,97899.78
2022-11-24T08:15:30.977Z,97901.25
2022-11-24T08:17:35.742Z,97903.72
2022-11-24T08:19:43.175Z,97902.22
2022-11-24T08:21:47.905Z,97892.75
2022-11-24T08:23:52.923Z,97902.03
2022-11-24T08:26:00.710Z,97899.19
2022-11-24T08:28:07.075Z,97894.72
2022-11-24T08:30:15.813Z,97893.91
2022-11-24T08:32:22.605Z,97897.47
2022-11-24T08:34:28.325Z,97893.78
2022-11-24T08:36:36.852Z,97896.13
2022-11-24T08:38:41.978Z,97895.94
2022-11-24T08:40:46.573Z,97898.59
2022-11-24T08:42:51.435Z,97896.88
2022-11-24T08:44:58.995Z,97894.31
2022-11-24T08:47:07.124Z,97900.09
2022-11-24T08:49:13.693Z,97904.31
2022-11-24T08:51:20.293Z,97900.84
2022-11-24T08:53:27.764Z,97900.88
2022-11-24T08:55:32.554Z,97903.94
2022-11-24T08:57:37.371Z,97899.38
2022-11-24T08:59:42.122Z,97900.09
2022-11-24T09:01:47.160Z,97905.09
2022-11-24T09:03:55.696Z,97901.72
2022-11-24T09:06:00.744Z,97899.25
2022-11-24T09:08:05.551Z,97911.44
2022-11-24T09:10:13.918Z,97911.53
2022-11-24T09:12:21.622Z,97909.19
2022-11-24T09:14:26.424Z,97917.66
2022-11-24T09:16:32.426Z,97915.88
2022-11-24T09:18:37.578Z,97910.56
2022-11-24T09:20:43.225Z,97920.69
2022-11-24T09:22:48.043Z,97920.38
2022-11-24T09:24:52.820Z,97920.09
2022-11-24T09:27:00.153Z,97921.72
2022-11-24T09:29:08.044Z,97927.75
2022-11-24T09:31:14.963Z,97932.13
2022-11-24T09:33:19.766Z,97932.56
2022-11-24T09:35:26.646Z,97934.50
2022-11-24T09:37:32.868Z,97940.41
2022-11-24T09:39:37.842Z,97941.06
2022-11-24T09:41:53.107Z,97945.63
2022-11-24T09:44:09.141Z,97947.19
2022-11-24T09:46:21.522Z,97947.31
2022-11-24T09:48:32.927Z,97942.53
2022-11-24T09:50:39.227Z,97953.75
2022-11-24T09:52:50.906Z,97942.19
2022-11-24T09:55:02.798Z,97951.16
2022-11-24T09:57:08.739Z,97958.72
2022-11-24T09:59:19.285Z,97956.78
2022-11-24T10:01:29.163Z,97960.09
2022-11-24T10:03:37.291Z,97962.16
2022-11-24T10:05:46.055Z,97970.69
2022-11-24T10:08:03.065Z,97967.72
2022-11-24T10:10:11.732Z,97967.31
2022-11-24T10:12:30.437Z,97967.84
2022-11-24T10:15:08.966Z,97975.91
2022-11-24T10:17:27.739Z,97975.94
2022-11-24T10:19:43.826Z,97972.69
2022-11-24T10:22:02.410Z,97973.50
2022-11-24T10:24:23.521Z,97971.41
2022-11-24T10:26:37.750Z,97983.44
2022-11-24T10:28:46.395Z,97974.84
2022-11-24T10:31:13.832Z,97982.44
2022-11-24T10:33:28.785Z,97986.66
2022-11-24T10:35:45.561Z,97978.97
2022-11-24T10:38:00.971Z,97986.88
2022-11-24T10:40:40.511Z,97992.44
2022-11-24T10:42:40.409Z,97991.03
2022-11-24T10:44:46.057Z,97987.38
2022-11-24T10:46:53.471Z,97998.69
2022-11-24T10:49:01.542Z,97989.25
2022-11-24T10:51:27.826Z,97998.69
2022-11-24T10:53:33.520Z,97993.63
2022-11-24T10:56:06.899Z,97995.38
2022-11-24T10:58:19.270Z,97999.56
2022-11-24T11:00:37.153Z,97998.59
2022-11-24T11:02:44.724Z,97999.41
2022-11-24T11:04:49.517Z,97991.91
2022-11-24T11:06:54.278Z,97999.56
2022-11-24T11:09:20.503Z,97997.22
2022-11-24T11:11:25.940Z,98000.75
2022-11-24T11:13:32.979Z,97999.88
2022-11-24T11:15:38.256Z,98004.59
2022-11-24T11:17:50.437Z,98003.16
2022-11-24T11:20:01.985Z,97997.41
2022-11-24T11:22:16.427Z,97997.41
2022-11-24T11:24:21.861Z,97990.19
2022-11-24T11:26:39.899Z,97993.03
2022-11-24T11:28:44.715Z,97990.53
2022-11-24T11:31:18.585Z,97983.88
2022-11-24T11:36:01.127Z,97984.00
2022-11-24T11:38:07.862Z,97983.97
2022-11-24T11:40:19.141Z,97987.44
2022-11-24T11:43:00.859Z,97992.91
2022-11-24T11:45:00.605Z,98004.63
2022-11-24T11:47:16.436Z,98006.13
2022-11-24T11:49:24.054Z,97993.97
2022-11-24T11:51:41.991Z,97997.66
2022-11-24T11:53:51.943Z,97996.75
2022-11-24T11:56:04.876Z,97995.72
2022-11-24T11:58:40.568Z,98000.56
2022-11-24T12:00:51.407Z,97999.34
2022-11-24T12:03:28.998Z,97996.34
2022-11-24T12:05:49.932Z,97997.13
2022-11-24T12:08:10.941Z,98009.34
2022-11-24T12:10:26.714Z,98001.81
2022-11-24T12:12:48.322Z,97999.69
2022-11-24T12:15:09.131Z,97996.03
2022-11-24T12:17:24.524Z,97999.03
2022-11-24T12:19:44.461Z,97998.31
2022-11-24T12:22:03.816Z,97997.59
2022-11-24T12:24:19.216Z,97988.06
2022-11-24T12:26:34.870Z,97994.53
2022-11-24T12:28:54.421Z,97996.56
2022-11-24T12:31:08.552Z,98014.50
2022-11-24T12:33:37.414Z,98007.41
2022-11-24T12:35:46.203Z,98015.72
2022-11-24T12:38:04.110Z,98007.97
2022-11-24T12:40:17.527Z,98016.03
2022-11-24T12:42:33.908Z,98021.94
2022-11-24T12:45:03.078Z,98025.75
2022-11-24T12:47:16.878Z,98025.44
2022-11-24T12:49:33.460Z,98021.34
2022-11-24T12:51:43.934Z,98028.44
2022-11-24T12:53:56.244Z,98020.94
2022-11-24T12:56:07.820Z,98019.16
2022-11-24T12:58:19.841Z,98016.78
2022-11-24T13:00:26.647Z,98027.16
2022-11-24T13:02:42.877Z,98029.47
2022-11-24T13:04:54.269Z,98022.38
2022-11-24T13:07:04.003Z,98028.34
2022-11-24T13:09:18.947Z,98020.03
2022-11-24T13:11:42.214Z,98025.13
2022-11-24T13:14:01.285Z,98030.34
2022-11-24T13:16:35.587Z,98016.78
2022-11-24T13:18:49.747Z,98028.56
2022-11-24T13:20:54.574Z,98027.13
2022-11-24T13:23:01.849Z,98032.34
2022-11-24T13:25:18.886Z,98032.31
2022-11-24T13:27:31.821Z,98033.31
2022-11-24T13:29:38.955Z,98036.66
2022-11-24T13:31:43.895Z,98041.22
2022-11-24T13:33:49.146Z,98049.88
2022-11-24T13:36:08.628Z,98039.44
2022-11-24T13:38:43.891Z,98054.00
2022-11-24T13:41:13.486Z,98044.22
2022-11-24T13:43:25.322Z,98044.88
2022-11-24T13:45:52.031Z,98052.59
2022-11-24T13:47:56.769Z,98050.00
2022-11-24T13:50:02.648Z,98059.31
2022-11-24T13:52:49.114Z,98055.53
2022-11-24T13:54:55.151Z,98054.28
2022-11-24T13:57:43.725Z,98060.38
2022-11-24T13:59:51.284Z,98055.13
2022-11-24T14:02:00.933Z,98056.69
2022-11-24T14:04:35.732Z,98056.63
2022-11-24T14:06:48.046Z,98054.44
2022-11-24T14:08:52.911Z,98054.69
2022-11-24T14:10:59.348Z,98061.84
2022-11-24T14:13:27.868Z,98061.84
2022-11-24T14:15:36.575Z,98070.66
2022-11-24T14:17:41.531Z,98063.41
2022-11-24T14:19:49.037Z,98068.72
2022-11-24T14:21:53.809Z,98066.72
2022-11-24T14:24:01.283Z,98070.03
2022-11-24T14:26:06.060Z,98069.19
2022-11-24T14:28:25.526Z,98073.63
2022-11-24T14:30:30.493Z,98068.59
2022-11-24T14:32:37.975Z,98077.44
2022-11-24T14:34:42.786Z,98078.03
2022-11-24T14:36:48.006Z,98088.03
2022-11-24T14:38:52.790Z,98083.50
2022-11-24T14:40:58.740Z,98077.34
2022-11-24T14:43:03.668Z,98081.34
2022-11-24T14:45:09.063Z,98085.63
2022-11-24T14:47:28.778Z,98088.59
2022-11-24T14:49:44.463Z,98090.88
2022-11-24T14:51:54.864Z,98091.56
2022-11-24T14:54:03.038Z,98088.88
2022-11-24T14:56:25.028Z,98100.06
2022-11-24T14:58:40.531Z,98102.13
2022-11-24T15:00:47.126Z,98104.00
2022-11-24T15:02:55.725Z,98106.75
2022-11-24T15:05:04.098Z,98116.56
2022-11-24T15:07:19.093Z,98115.88
2022-11-24T15:09:34.274Z,98124.75
2022-11-24T15:11:39.145Z,98119.56
2022-11-24T15:13:56.011Z,98116.97
2022-11-24T15:16:04.533Z,98117.06
2022-11-24T15:18:23.322Z,98119.63
2022-11-24T15:20:36.654Z,98129.22
2022-11-24T15:22:43.648Z,98126.78
2022-11-24T15:24:52.327Z,98133.69
2022-11-24T15:27:03.369Z,98127.69
2022-11-24T15:29:08.153Z,98130.53
2022-11-24T15:31:14.912Z,98140.34
2022-11-24T15:33:21.800Z,98138.53
2022-11-24T15:35:32.274Z,98144.53
2022-11-24T15:37:37.994Z,98141.25
2022-11-24T15:39:42.808Z,98154.34
2022-11-24T15:41:47.674Z,98156.09
2022-11-24T15:43:58.867Z,98160.97
2022-11-24T15:46:04.997Z,98160.16
2022-11-24T15:48:14.805Z,98162.00
2022-11-24T15:50:23.304Z,98168.28
2022-11-24T15:52:30.762Z,98176.97
2022-11-24T15:54:36.567Z,98178.66
2022-11-24T15:56:42.296Z,98176.03
2022-11-24T15:58:47.175Z,98177.09
2022-11-24T16:00:53.831Z,98175.47
2022-11-24T16:03:02.070Z,98189.41
2022-11-24T16:05:18.752Z,98188.63
2022-11-24T16:07:23.755Z,98192.28
2022-11-24T16:09:31.246Z,98196.59
2022-11-24T16:11:36.073Z,98192.28
2022-11-24T16:13:40.931Z,98195.69
2022-11-24T16:15:46.066Z,98201.81
2022-11-24T16:17:52.856Z,98197.38
2022-11-24T16:20:00.742Z,98203.34
2022-11-24T16:22:06.445Z,98205.84
2022-11-24T16:24:11.805Z,98210.19
2022-11-24T16:26:19.436Z,98210.16
2022-11-24T16:28:24.372Z,98218.81
2022-11-24T16:30:29.277Z,98213.63
2022-11-24T16:32:34.163Z,98209.34
2022-11-24T16:34:38.914Z,98207.66
2022-11-24T16:36:43.744Z,98207.66
2022-11-24T16:38:48.914Z,98211.88
2022-11-24T16:40:59.405Z,98214.47
2022-11-24T16:43:07.259Z,98214.47
2022-11-24T16:45:16.863Z,98216.09
2022-11-24T16:47:24.062Z,98220.34
2022-11-24T16:49:28.964Z,98223.69
2022-11-24T16:51:35.107Z,98220.88
2022-11-24T16:53:41.929Z,98219.91
2022-11-24T16:55:46.961Z,98224.19
2022-11-24T16:57:52.948Z,98222.38
2022-11-24T17:00:00.515Z,98223.03
2022-11-24T17:02:05.518Z,98230.81
2022-11-24T17:04:12.804Z,98218.69
2022-11-24T17:06:19.646Z,98232.53
2022-11-24T17:08:24.649Z,98223.03
2022-11-24T17:10:30.004Z,98223.00
2022-11-24T17:12:35.882Z,98226.53
2022-11-24T17:14:40.995Z,98229.97
2022-11-24T17:16:56.084Z,98235.03
2022-11-24T17:19:01.413Z,98227.13
2022-11-24T17:21:09.797Z,98222.88
2022-11-24T17:23:16.132Z,98232.47
2022-11-24T17:25:22.288Z,98233.31
2022-11-24T17:27:27.432Z,98230.56
2022-11-24T17:29:32.974Z,98230.50
2022-11-24T17:31:40.127Z,98236.59
2022-11-24T17:33:53.132Z,98227.91
2022-11-24T17:35:58.094Z,98237.63
2022-11-24T17:38:03.146Z,98241.97
2022-11-24T17:42:34.715Z,98242.25
2022-11-24T17:44:39.609Z,98251.19
2022-11-24T17:46:46.071Z,98247.97
2022-11-24T17:48:54.220Z,98256.88
2022-11-24T17:51:03.497Z,98255.28
2022-11-24T17:53:08.307Z,98253.78
2022-11-24T17:55:15.344Z,98262.56
2022-11-24T17:57:20.140Z,98261.84
2022-11-24T17:59:25.051Z,98263.72
2022-11-24T18:01:31.624Z,98263.81
2022-11-24T18:03:36.532Z,98266.50
2022-11-24T18:05:44.058Z,98266.63
2022-11-24T18:07:48.864Z,98266.75
2022-11-24T18:09:53.691Z,98268.63
2022-11-24T18:11:58.507Z,98267.88
2022-11-24T18:14:05.493Z,98275.00
2022-11-24T18:16:12.739Z,98280.31
2022-11-24T18:18:17.908Z,98279.56
2022-11-24T18:20:22.759Z,98283.06
2022-11-24T18:22:57.844Z,98281.34
2022-11-24T18:24:55.337Z,98287.53
2022-11-24T18:27:00.153Z,98282.38
2022-11-24T18:29:05.003Z,98286.69
2022-11-24T18:31:14.326Z,98284.09
2022-11-24T18:33:19.918Z,98284.97
2022-11-24T18:35:24.685Z,98282.44
2022-11-24T18:37:33.893Z,98286.00
2022-11-24T18:39:42.097Z,98287.81
2022-11-24T18:41:47.246Z,98286.06
2022-11-24T18:43:51.816Z,98293.81
2022-11-24T18:45:57.037Z,98297.16
2022-11-24T18:48:01.658Z,98292.84
2022-11-24T18:50:07.515Z,98299.63
2022-11-24T18:52:12.591Z,98296.00
2022-11-24T18:54:20.002Z,98294.09
2022-11-24T18:56:25.201Z,98303.50
2022-11-24T18:58:31.514Z,98296.38
2022-11-24T19:00:36.302Z,98291.94
2022-11-24T19:02:41.418Z,98288.56
2022-11-24T19:04:46.380Z,98292.84
2022-11-24T19:06:51.167Z,98285.09
2022-11-24T19:08:57.159Z,98291.19
2022-11-24T19:11:05.229Z,98293.75
2022-11-24T19:13:10.402Z,98292.00
2022-11-24T19:15:17.652Z,98298.84
2022-11-24T19:17:22.413Z,98291.84
2022-11-24T19:19:28.981Z,98290.91
2022-11-24T19:21:35.537Z,98286.56
2022-11-24T19:23:40.906Z,98289.94
2022-11-24T19:25:48.196Z,98293.38
2022-11-24T19:27:55.664Z,98295.16
2022-11-24T19:30:00.560Z,98291.81
2022-11-24T19:32:05.387Z,98297.31
2022-11-24T19:34:10.745Z,98294.78
2022-11-24T19:36:17.695Z,98301.72
2022-11-24T19:38:25.645Z,98300.06
2022-11-24T19:40:34.501Z,98295.00
2022-11-24T19:42:42.096Z,98300.28
2022-11-24T19:44:54.760Z,98299.53
2022-11-24T19:47:01.304Z,98300.56
2022-11-24T19:49:08.346Z,98306.78
2022-11-24T19:51:15.508Z,98314.72
2022-11-24T19:53:20.244Z,98319.19
2022-11-24T19:55:25.052Z,98316.63
2022-11-24T19:57:29.826Z,98320.75
2022-11-24T19:59:34.705Z,98317.97
2022-11-24T20:01:43.829Z,98309.94
2022-11-24T20:03:50.463Z,98312.44
2022-11-24T20:05:58.082Z,98312.34
2022-11-24T20:08:02.973Z,98312.25
2022-11-24T20:10:09.614Z,98308.72
2022-11-24T20:12:14.970Z,98306.94
2022-11-24T20:14:20.460Z,98304.53
2022-11-24T20:16:29.853Z,98308.97
2022-11-24T20:18:41.738Z,98309.91
2022-11-24T20:20:47.160Z,98310.00
2022-11-24T20:22:51.932Z,98309.16
2022-11-24T20:24:56.783Z,98319.44
2022-11-24T20:27:03.152Z,98316.78
2022-11-24T20:29:09.960Z,98313.25
2022-11-24T20:31:16.897Z,98314.09
2022-11-24T20:33:21.741Z,98307.22
2022-11-24T20:35:29.129Z,98310.56
2022-11-24T20:37:33.967Z,98308.72
2022-11-24T20:39:38.727Z,98308.72
2022-11-24T20:41:43.586Z,98312.25
2022-11-24T20:43:49.588Z,98311.59
2022-11-24T20:45:54.438Z,98309.16
2022-11-24T20:47:59.360Z,98308.56
2022-11-24T20:50:04.190Z,98303.56
2022-11-24T20:52:17.549Z,98312.41
2022-11-24T20:54:22.456Z,98310.94
2022-11-24T20:56:29.397Z,98312.81
2022-11-24T20:58:35.569Z,98310.38
2022-11-24T21:00:40.394Z,98313.94
2022-11-24T21:02:45.656Z,98308.91
2022-11-24T21:04:53.191Z,98313.53
2022-11-24T21:06:58.125Z,98312.88
2022-11-24T21:09:06.499Z,98316.50
2022-11-24T21:11:13.724Z,98314.88
2022-11-24T21:13:18.512Z,98313.28
2022-11-24T21:15:23.811Z,98319.31
2022-11-24T21:17:28.590Z,98321.13
2022-11-24T21:19:33.457Z,98320.28
2022-11-24T21:21:39.652Z,98322.97
2022-11-24T21:23:45.136Z,98318.72
2022-11-24T21:25:52.559Z,98319.63
2022-11-24T21:27:57.377Z,98323.97
2022-11-24T21:30:02.278Z,98327.53
2022-11-24T21:32:07.447Z,98332.78
2022-11-24T21:34:13.016Z,98331.13
2022-11-24T21:36:19.811Z,98335.53
2022-11-24T21:38:24.598Z,98326.94
2022-11-24T21:40:29.450Z,98326.97
2022-11-24T21:42:36.852Z,98332.16
2022-11-24T21:44:41.685Z,98325.31
2022-11-24T21:46:52.616Z,98325.44
2022-11-24T21:49:00.694Z,98330.59
2022-11-24T21:51:08.086Z,98334.03
2022-11-24T21:53:12.900Z,98335.72
2022-11-24T21:55:18.230Z,98332.28
2022-11-24T21:57:23.262Z,98332.34
2022-11-24T21:59:30.618Z,98334.97
2022-11-24T22:01:35.497Z,98337.63
2022-11-24T22:03:40.428Z,98339.38
2022-11-24T22:05:54.938Z,98339.50
2022-11-24T22:08:00.027Z,98338.84
2022-11-24T22:10:04.939Z,98349.38
2022-11-24T22:12:10.162Z,98337.34
2022-11-24T22:14:14.797Z,98343.47
2022-11-24T22:16:23.497Z,98342.63
2022-11-24T22:18:28.398Z,98339.25
2022-11-24T22:20:33.267Z,98335.00
2022-11-24T22:22:38.033Z,98340.25
2022-11-24T22:24:42.866Z,98341.09
2022-11-24T22:26:47.700Z,98342.78
2022-11-24T22:28:52.972Z,98342.84
2022-11-24T22:30:57.792Z,98333.34
2022-11-24T22:33:05.122Z,98335.00
2022-11-24T22:35:11.364Z,98330.75
2022-11-24T22:37:17.512Z,98329.06
2022-11-24T22:39:22.312Z,98335.03
2022-11-24T22:41:27.783Z,98330.75
2022-11-24T22:43:34.451Z,98331.69
2022-11-24T22:45:39.248Z,98326.53
2022-11-24T22:47:44.024Z,98330.94
2022-11-24T22:49:51.371Z,98327.59
2022-11-24T22:51:56.197Z,98332.00
2022-11-24T22:54:02.744Z,98324.31
2022-11-24T22:56:09.733Z,98327.75
2022-11-24T22:58:14.499Z,98328.59
2022-11-24T23:00:20.600Z,98332.91
2022-11-24T23:02:25.384Z,98326.91
2022-11-24T23:04:30.276Z,98334.78
2022-11-24T23:06:38.815Z,98328.00
2022-11-24T23:08:44.276Z,98328.88
2022-11-24T23:10:49.081Z,98328.06
2022-11-24T23:12:54.741Z,98332.34
2022-11-24T23:14:59.566Z,98325.44
2022-11-24T23:17:04.380Z,98331.50
2022-11-24T23:19:12.670Z,98324.63
2022-11-24T23:21:18.126Z,98331.50
2022-11-24T23:23:25.493Z,98329.75
2022-11-24T23:25:30.347Z,98327.19
2022-11-24T23:27:35.133Z,98335.78
2022-11-24T23:29:39.956Z,98333.16
2022-11-24T23:31:44.772Z,98329.69
2022-11-24T23:33:49.784Z,98335.75
2022-11-24T23:35:54.602Z,98331.38
2022-11-24T23:38:07.554Z,98335.78
2022-11-24T23:40:15.849Z,98339.19
2022-11-24T23:42:21.601Z,98331.44
2022-11-24T23:44:26.349Z,98325.41
2022-11-24T23:46:31.515Z,98326.28
2022-11-24T23:48:36.567Z,98330.66
2022-11-24T23:50:41.510Z,98326.41
2022-11-24T23:52:46.304Z,98319.56
2022-11-24T23:54:51.085Z,98321.31
2022-11-24T23:56:58.432Z,98323.13
2022-11-24T23:59:03.806Z,98322.28
